sensor_id;sensor_type;location;lat;lon;timestamp;P1;durP1;ratioP1;P2;durP2;ratioP2
5125;SDS011;63008;53.112;8.896;2023-04-24T00:00:23;2.53;;;1.90;;
5125;SDS011;63008;53.112;8.896;2023-04-24T00:02:25;2.73;;;1.93;;
5125;SDS011;63008;53.112;8.896;2023-04-24T00:04:26;3.37;;;1.70;;
5125;SDS011;63008;53.112;8.896;2023-04-24T00:06:30;1.83;;;1.73;;
5125;SDS011;63008;53.112;8.896;2023-04-24T00:08:34;2.60;;;1.97;;
5125;SDS011;63008;53.112;8.896;2023-04-24T00:10:39;2.70;;;2.27;;
5125;SDS011;63008;53.112;8.896;2023-04-24T00:12:40;4.93;;;1.90;;
5125;SDS011;63008;53.112;8.896;2023-04-24T00:14:41;3.63;;;1.97;;
5125;SDS011;63008;53.112;8.896;2023-04-24T00:16:42;2.00;;;1.90;;
5125;SDS011;63008;53.112;8.896;2023-04-24T00:18:43;2.60;;;2.37;;
5125;SDS011;63008;53.112;8.896;2023-04-24T00:20:45;3.23;;;2.10;;
5125;SDS011;63008;53.112;8.896;2023-04-24T00:22:47;2.20;;;1.90;;
5125;SDS011;63008;53.112;8.896;2023-04-24T00:24:48;2.03;;;1.93;;
5125;SDS011;63008;53.112;8.896;2023-04-24T00:26:49;2.23;;;2.13;;
5125;SDS011;63008;53.112;8.896;2023-04-24T00:28:49;2.00;;;1.90;;
5125;SDS011;63008;53.112;8.896;2023-04-24T00:30:50;1.67;;;1.57;;
5125;SDS011;63008;53.112;8.896;2023-04-24T00:32:51;2.17;;;1.90;;
5125;SDS011;63008;53.112;8.896;2023-04-24T00:34:52;1.87;;;1.77;;
5125;SDS011;63008;53.112;8.896;2023-04-24T00:36:53;2.70;;;2.50;;
5125;SDS011;63008;53.112;8.896;2023-04-24T00:38:55;1.97;;;1.87;;
5125;SDS011;63008;53.112;8.896;2023-04-24T00:40:56;2.07;;;1.97;;
5125;SDS011;63008;53.112;8.896;2023-04-24T00:42:57;2.53;;;2.33;;
5125;SDS011;63008;53.112;8.896;2023-04-24T00:44:58;1.97;;;1.87;;
5125;SDS011;63008;53.112;8.896;2023-04-24T00:46:59;3.70;;;2.20;;
5125;SDS011;63008;53.112;8.896;2023-04-24T00:49:01;2.40;;;1.97;;
5125;SDS011;63008;53.112;8.896;2023-04-24T00:51:03;1.70;;;1.60;;
5125;SDS011;63008;53.112;8.896;2023-04-24T00:53:04;2.10;;;2.00;;
5125;SDS011;63008;53.112;8.896;2023-04-24T00:55:05;2.87;;;1.80;;
5125;SDS011;63008;53.112;8.896;2023-04-24T00:57:06;3.33;;;2.03;;
5125;SDS011;63008;53.112;8.896;2023-04-24T00:59:07;1.60;;;1.60;;
5125;SDS011;63008;53.112;8.896;2023-04-24T01:01:09;2.60;;;1.77;;
5125;SDS011;63008;53.112;8.896;2023-04-24T01:03:12;1.97;;;1.87;;
5125;SDS011;63008;53.112;8.896;2023-04-24T01:05:15;1.43;;;1.33;;
5125;SDS011;63008;53.112;8.896;2023-04-24T01:07:20;1.67;;;1.67;;
5125;SDS011;63008;53.112;8.896;2023-04-24T01:09:22;3.23;;;1.70;;
5125;SDS011;63008;53.112;8.896;2023-04-24T01:11:24;2.40;;;1.70;;
5125;SDS011;63008;53.112;8.896;2023-04-24T01:13:27;4.20;;;1.83;;
5125;SDS011;63008;53.112;8.896;2023-04-24T01:15:29;1.70;;;1.60;;
5125;SDS011;63008;53.112;8.896;2023-04-24T01:17:30;1.63;;;1.53;;
5125;SDS011;63008;53.112;8.896;2023-04-24T01:19:31;2.07;;;1.40;;
5125;SDS011;63008;53.112;8.896;2023-04-24T01:21:34;1.40;;;1.30;;
5125;SDS011;63008;53.112;8.896;2023-04-24T01:23:37;1.57;;;1.47;;
5125;SDS011;63008;53.112;8.896;2023-04-24T01:25:38;2.43;;;1.47;;
5125;SDS011;63008;53.112;8.896;2023-04-24T01:27:39;1.50;;;1.50;;
5125;SDS011;63008;53.112;8.896;2023-04-24T01:29:40;1.50;;;1.50;;
5125;SDS011;63008;53.112;8.896;2023-04-24T01:31:42;2.17;;;1.40;;
5125;SDS011;63008;53.112;8.896;2023-04-24T01:33:43;1.37;;;1.37;;
5125;SDS011;63008;53.112;8.896;2023-04-24T01:35:45;1.60;;;1.50;;
5125;SDS011;63008;53.112;8.896;2023-04-24T01:37:46;1.87;;;1.77;;
5125;SDS011;63008;53.112;8.896;2023-04-24T01:39:47;1.53;;;1.53;;
5125;SDS011;63008;53.112;8.896;2023-04-24T01:41:48;1.83;;;1.73;;
5125;SDS011;63008;53.112;8.896;2023-04-24T01:43:50;1.70;;;1.60;;
5125;SDS011;63008;53.112;8.896;2023-04-24T01:45:51;1.37;;;1.30;;
5125;SDS011;63008;53.112;8.896;2023-04-24T01:47:52;1.37;;;1.27;;
5125;SDS011;63008;53.112;8.896;2023-04-24T01:49:53;1.27;;;1.27;;
5125;SDS011;63008;53.112;8.896;2023-04-24T01:51:54;1.90;;;1.00;;
5125;SDS011;63008;53.112;8.896;2023-04-24T01:53:55;1.00;;;1.00;;
5125;SDS011;63008;53.112;8.896;2023-04-24T01:55:56;1.40;;;1.30;;
5125;SDS011;63008;53.112;8.896;2023-04-24T01:57:57;1.27;;;1.27;;
5125;SDS011;63008;53.112;8.896;2023-04-24T02:00:00;2.73;;;1.60;;
5125;SDS011;63008;53.112;8.896;2023-04-24T02:02:01;2.07;;;1.40;;
5125;SDS011;63008;53.112;8.896;2023-04-24T02:04:06;1.10;;;1.10;;
5125;SDS011;63008;53.112;8.896;2023-04-24T02:06:08;1.40;;;1.40;;
5125;SDS011;63008;53.112;8.896;2023-04-24T02:08:09;1.53;;;1.43;;
5125;SDS011;63008;53.112;8.896;2023-04-24T02:10:10;1.10;;;1.10;;
5125;SDS011;63008;53.112;8.896;2023-04-24T02:12:11;1.20;;;1.20;;
5125;SDS011;63008;53.112;8.896;2023-04-24T02:14:12;1.27;;;1.27;;
5125;SDS011;63008;53.112;8.896;2023-04-24T02:16:13;1.50;;;1.30;;
5125;SDS011;63008;53.112;8.896;2023-04-24T02:18:14;1.20;;;1.20;;
5125;SDS011;63008;53.112;8.896;2023-04-24T02:20:16;1.27;;;1.17;;
5125;SDS011;63008;53.112;8.896;2023-04-24T02:22:18;1.40;;;1.30;;
5125;SDS011;63008;53.112;8.896;2023-04-24T02:24:19;1.20;;;1.10;;
5125;SDS011;63008;53.112;8.896;2023-04-24T02:26:20;2.77;;;0.90;;
5125;SDS011;63008;53.112;8.896;2023-04-24T02:28:21;1.27;;;1.17;;
5125;SDS011;63008;53.112;8.896;2023-04-24T02:30:22;3.43;;;1.23;;
5125;SDS011;63008;53.112;8.896;2023-04-24T02:32:23;1.63;;;1.20;;
5125;SDS011;63008;53.112;8.896;2023-04-24T02:34:24;1.70;;;1.60;;
5125;SDS011;63008;53.112;8.896;2023-04-24T02:36:25;1.70;;;1.50;;
5125;SDS011;63008;53.112;8.896;2023-04-24T02:38:26;2.10;;;1.70;;
5125;SDS011;63008;53.112;8.896;2023-04-24T02:40:27;2.20;;;2.10;;
5125;SDS011;63008;53.112;8.896;2023-04-24T02:42:28;2.10;;;2.00;;
5125;SDS011;63008;53.112;8.896;2023-04-24T02:44:29;2.07;;;1.80;;
5125;SDS011;63008;53.112;8.896;2023-04-24T02:46:30;3.10;;;1.93;;
5125;SDS011;63008;53.112;8.896;2023-04-24T02:48:31;2.00;;;1.90;;
5125;SDS011;63008;53.112;8.896;2023-04-24T02:50:31;2.37;;;2.27;;
5125;SDS011;63008;53.112;8.896;2023-04-24T02:52:34;2.80;;;2.60;;
5125;SDS011;63008;53.112;8.896;2023-04-24T02:54:35;2.37;;;2.27;;
5125;SDS011;63008;53.112;8.896;2023-04-24T02:56:36;2.40;;;2.20;;
5125;SDS011;63008;53.112;8.896;2023-04-24T02:58:37;1.90;;;1.80;;
5125;SDS011;63008;53.112;8.896;2023-04-24T03:00:38;7.50;;;2.30;;
5125;SDS011;63008;53.112;8.896;2023-04-24T03:02:39;2.67;;;2.10;;
5125;SDS011;63008;53.112;8.896;2023-04-24T03:04:40;1.80;;;1.70;;
5125;SDS011;63008;53.112;8.896;2023-04-24T03:06:43;1.53;;;1.53;;
5125;SDS011;63008;53.112;8.896;2023-04-24T03:08:44;2.07;;;1.90;;
5125;SDS011;63008;53.112;8.896;2023-04-24T03:10:45;2.50;;;2.40;;
5125;SDS011;63008;53.112;8.896;2023-04-24T03:12:46;3.43;;;2.00;;
5125;SDS011;63008;53.112;8.896;2023-04-24T03:14:47;2.33;;;2.23;;
5125;SDS011;63008;53.112;8.896;2023-04-24T03:16:48;2.10;;;2.00;;
5125;SDS011;63008;53.112;8.896;2023-04-24T03:18:49;1.90;;;1.80;;
5125;SDS011;63008;53.112;8.896;2023-04-24T03:20:50;3.00;;;2.20;;
5125;SDS011;63008;53.112;8.896;2023-04-24T03:22:51;2.30;;;2.20;;
5125;SDS011;63008;53.112;8.896;2023-04-24T03:24:52;2.80;;;2.30;;
5125;SDS011;63008;53.112;8.896;2023-04-24T03:26:52;2.07;;;1.90;;
5125;SDS011;63008;53.112;8.896;2023-04-24T03:28:53;2.80;;;2.13;;
5125;SDS011;63008;53.112;8.896;2023-04-24T03:30:55;4.57;;;2.30;;
5125;SDS011;63008;53.112;8.896;2023-04-24T03:32:56;2.00;;;1.77;;
5125;SDS011;63008;53.112;8.896;2023-04-24T03:34:57;1.93;;;1.60;;
5125;SDS011;63008;53.112;8.896;2023-04-24T03:36:58;1.90;;;1.80;;
5125;SDS011;63008;53.112;8.896;2023-04-24T03:38:59;1.70;;;1.60;;
5125;SDS011;63008;53.112;8.896;2023-04-24T03:41:00;2.00;;;1.90;;
5125;SDS011;63008;53.112;8.896;2023-04-24T03:43:01;1.57;;;1.47;;
5125;SDS011;63008;53.112;8.896;2023-04-24T03:45:02;1.87;;;1.77;;
5125;SDS011;63008;53.112;8.896;2023-04-24T03:47:03;3.53;;;1.80;;
5125;SDS011;63008;53.112;8.896;2023-04-24T03:49:04;2.00;;;1.90;;
5125;SDS011;63008;53.112;8.896;2023-04-24T03:51:05;3.83;;;2.10;;
5125;SDS011;63008;53.112;8.896;2023-04-24T03:53:06;1.80;;;1.70;;
5125;SDS011;63008;53.112;8.896;2023-04-24T03:55:07;2.50;;;2.30;;
5125;SDS011;63008;53.112;8.896;2023-04-24T03:57:08;1.77;;;1.67;;
5125;SDS011;63008;53.112;8.896;2023-04-24T03:59:09;1.77;;;1.67;;
5125;SDS011;63008;53.112;8.896;2023-04-24T04:01:10;1.90;;;1.80;;
5125;SDS011;63008;53.112;8.896;2023-04-24T04:03:12;1.67;;;1.57;;
5125;SDS011;63008;53.112;8.896;2023-04-24T04:05:14;1.57;;;1.47;;
5125;SDS011;63008;53.112;8.896;2023-04-24T04:07:15;1.40;;;1.37;;
5125;SDS011;63008;53.112;8.896;2023-04-24T04:09:16;7.90;;;1.50;;
5125;SDS011;63008;53.112;8.896;2023-04-24T04:11:17;2.13;;;1.30;;
5125;SDS011;63008;53.112;8.896;2023-04-24T04:13:18;2.03;;;1.50;;
5125;SDS011;63008;53.112;8.896;2023-04-24T04:15:19;1.67;;;1.57;;
5125;SDS011;63008;53.112;8.896;2023-04-24T04:17:20;1.93;;;1.60;;
5125;SDS011;63008;53.112;8.896;2023-04-24T04:19:21;1.90;;;1.50;;
5125;SDS011;63008;53.112;8.896;2023-04-24T04:21:22;1.17;;;1.17;;
5125;SDS011;63008;53.112;8.896;2023-04-24T04:23:23;1.60;;;1.60;;
5125;SDS011;63008;53.112;8.896;2023-04-24T04:25:24;1.20;;;1.20;;
5125;SDS011;63008;53.112;8.896;2023-04-24T04:27:25;1.77;;;1.67;;
5125;SDS011;63008;53.112;8.896;2023-04-24T04:29:26;2.77;;;1.37;;
5125;SDS011;63008;53.112;8.896;2023-04-24T04:31:27;2.93;;;1.27;;
5125;SDS011;63008;53.112;8.896;2023-04-24T04:33:28;2.50;;;1.70;;
5125;SDS011;63008;53.112;8.896;2023-04-24T04:35:29;2.27;;;1.33;;
5125;SDS011;63008;53.112;8.896;2023-04-24T04:37:30;1.90;;;1.50;;
5125;SDS011;63008;53.112;8.896;2023-04-24T04:39:31;2.57;;;1.10;;
5125;SDS011;63008;53.112;8.896;2023-04-24T04:41:32;1.33;;;1.23;;
5125;SDS011;63008;53.112;8.896;2023-04-24T04:43:35;2.50;;;1.47;;
5125;SDS011;63008;53.112;8.896;2023-04-24T04:45:37;4.23;;;1.80;;
5125;SDS011;63008;53.112;8.896;2023-04-24T04:47:39;3.80;;;1.07;;
5125;SDS011;63008;53.112;8.896;2023-04-24T04:49:40;1.20;;;1.20;;
5125;SDS011;63008;53.112;8.896;2023-04-24T04:51:41;1.40;;;1.30;;
5125;SDS011;63008;53.112;8.896;2023-04-24T04:53:42;2.10;;;1.30;;
5125;SDS011;63008;53.112;8.896;2023-04-24T04:55:43;1.40;;;1.30;;
5125;SDS011;63008;53.112;8.896;2023-04-24T04:57:44;7.37;;;3.30;;
5125;SDS011;63008;53.112;8.896;2023-04-24T04:59:46;2.73;;;1.43;;
5125;SDS011;63008;53.112;8.896;2023-04-24T05:01:47;4.83;;;1.37;;
5125;SDS011;63008;53.112;8.896;2023-04-24T05:03:48;1.70;;;1.60;;
5125;SDS011;63008;53.112;8.896;2023-04-24T05:05:49;2.00;;;1.70;;
5125;SDS011;63008;53.112;8.896;2023-04-24T05:07:50;1.50;;;1.40;;
5125;SDS011;63008;53.112;8.896;2023-04-24T05:09:51;1.43;;;1.33;;
5125;SDS011;63008;53.112;8.896;2023-04-24T05:11:53;1.40;;;1.40;;
5125;SDS011;63008;53.112;8.896;2023-04-24T05:13:54;4.73;;;1.50;;
5125;SDS011;63008;53.112;8.896;2023-04-24T05:15:55;3.10;;;1.43;;
5125;SDS011;63008;53.112;8.896;2023-04-24T05:17:58;2.57;;;1.70;;
5125;SDS011;63008;53.112;8.896;2023-04-24T05:20:02;1.67;;;1.20;;
5125;SDS011;63008;53.112;8.896;2023-04-24T05:22:06;2.33;;;1.63;;
5125;SDS011;63008;53.112;8.896;2023-04-24T05:24:07;1.60;;;1.50;;
5125;SDS011;63008;53.112;8.896;2023-04-24T05:26:08;1.83;;;1.73;;
5125;SDS011;63008;53.112;8.896;2023-04-24T05:28:09;2.20;;;2.00;;
5125;SDS011;63008;53.112;8.896;2023-04-24T05:30:10;2.30;;;2.10;;
5125;SDS011;63008;53.112;8.896;2023-04-24T05:32:11;2.00;;;1.87;;
5125;SDS011;63008;53.112;8.896;2023-04-24T05:34:12;2.53;;;1.90;;
5125;SDS011;63008;53.112;8.896;2023-04-24T05:36:14;2.50;;;1.70;;
5125;SDS011;63008;53.112;8.896;2023-04-24T05:38:15;3.67;;;1.80;;
5125;SDS011;63008;53.112;8.896;2023-04-24T05:40:20;2.10;;;1.90;;
5125;SDS011;63008;53.112;8.896;2023-04-24T05:42:21;2.00;;;1.90;;
5125;SDS011;63008;53.112;8.896;2023-04-24T05:44:23;2.93;;;2.73;;
5125;SDS011;63008;53.112;8.896;2023-04-24T05:46:24;1.60;;;1.50;;
5125;SDS011;63008;53.112;8.896;2023-04-24T05:48:25;2.67;;;2.17;;
5125;SDS011;63008;53.112;8.896;2023-04-24T05:50:28;2.63;;;2.43;;
5125;SDS011;63008;53.112;8.896;2023-04-24T05:52:29;2.37;;;2.27;;
5125;SDS011;63008;53.112;8.896;2023-04-24T05:54:30;2.50;;;2.40;;
5125;SDS011;63008;53.112;8.896;2023-04-24T05:56:31;5.87;;;2.10;;
5125;SDS011;63008;53.112;8.896;2023-04-24T05:58:32;4.83;;;2.90;;
5125;SDS011;63008;53.112;8.896;2023-04-24T06:00:33;3.57;;;2.97;;
5125;SDS011;63008;53.112;8.896;2023-04-24T06:02:34;3.10;;;2.90;;
5125;SDS011;63008;53.112;8.896;2023-04-24T06:04:35;2.80;;;2.60;;
5125;SDS011;63008;53.112;8.896;2023-04-24T06:06:36;3.20;;;2.93;;
5125;SDS011;63008;53.112;8.896;2023-04-24T06:08:37;3.57;;;3.27;;
5125;SDS011;63008;53.112;8.896;2023-04-24T06:10:38;3.10;;;2.90;;
5125;SDS011;63008;53.112;8.896;2023-04-24T06:12:39;3.77;;;3.47;;
5125;SDS011;63008;53.112;8.896;2023-04-24T06:14:40;3.93;;;3.63;;
5125;SDS011;63008;53.112;8.896;2023-04-24T06:16:42;4.40;;;3.70;;
5125;SDS011;63008;53.112;8.896;2023-04-24T06:18:43;3.40;;;3.30;;
5125;SDS011;63008;53.112;8.896;2023-04-24T06:20:44;4.67;;;3.37;;
5125;SDS011;63008;53.112;8.896;2023-04-24T06:22:46;3.70;;;3.50;;
5125;SDS011;63008;53.112;8.896;2023-04-24T06:24:47;4.10;;;3.70;;
5125;SDS011;63008;53.112;8.896;2023-04-24T06:26:49;4.17;;;3.77;;
5125;SDS011;63008;53.112;8.896;2023-04-24T06:28:50;4.50;;;3.77;;
5125;SDS011;63008;53.112;8.896;2023-04-24T06:30:51;5.03;;;4.70;;
5125;SDS011;63008;53.112;8.896;2023-04-24T06:32:52;4.60;;;4.30;;
5125;SDS011;63008;53.112;8.896;2023-04-24T06:34:53;4.90;;;4.70;;
5125;SDS011;63008;53.112;8.896;2023-04-24T06:36:54;5.20;;;4.80;;
5125;SDS011;63008;53.112;8.896;2023-04-24T06:38:56;9.33;;;5.03;;
5125;SDS011;63008;53.112;8.896;2023-04-24T06:40:57;5.70;;;4.10;;
5125;SDS011;63008;53.112;8.896;2023-04-24T06:42:58;4.67;;;4.37;;
5125;SDS011;63008;53.112;8.896;2023-04-24T06:45:00;5.37;;;4.97;;
5125;SDS011;63008;53.112;8.896;2023-04-24T06:47:01;5.33;;;4.40;;
5125;SDS011;63008;53.112;8.896;2023-04-24T06:49:03;10.60;;;5.23;;
5125;SDS011;63008;53.112;8.896;2023-04-24T06:51:04;5.80;;;5.00;;
5125;SDS011;63008;53.112;8.896;2023-04-24T06:53:05;4.67;;;4.37;;
5125;SDS011;63008;53.112;8.896;2023-04-24T06:55:06;6.30;;;5.80;;
5125;SDS011;63008;53.112;8.896;2023-04-24T06:57:08;7.80;;;7.10;;
5125;SDS011;63008;53.112;8.896;2023-04-24T06:59:09;8.13;;;7.47;;
5125;SDS011;63008;53.112;8.896;2023-04-24T07:01:10;8.90;;;8.00;;
5125;SDS011;63008;53.112;8.896;2023-04-24T07:03:11;10.80;;;8.90;;
5125;SDS011;63008;53.112;8.896;2023-04-24T07:05:12;9.87;;;8.87;;
5125;SDS011;63008;53.112;8.896;2023-04-24T07:07:13;9.80;;;8.80;;
5125;SDS011;63008;53.112;8.896;2023-04-24T07:09:15;9.50;;;8.50;;
5125;SDS011;63008;53.112;8.896;2023-04-24T07:11:19;8.80;;;7.10;;
5125;SDS011;63008;53.112;8.896;2023-04-24T07:13:20;8.97;;;8.10;;
5125;SDS011;63008;53.112;8.896;2023-04-24T07:15:21;11.90;;;8.50;;
5125;SDS011;63008;53.112;8.896;2023-04-24T07:17:23;8.33;;;7.60;;
5125;SDS011;63008;53.112;8.896;2023-04-24T07:19:24;11.23;;;8.37;;
5125;SDS011;63008;53.112;8.896;2023-04-24T07:21:25;9.57;;;8.10;;
5125;SDS011;63008;53.112;8.896;2023-04-24T07:23:27;9.37;;;8.57;;
5125;SDS011;63008;53.112;8.896;2023-04-24T07:25:28;10.23;;;9.00;;
5125;SDS011;63008;53.112;8.896;2023-04-24T07:27:29;11.30;;;8.30;;
5125;SDS011;63008;53.112;8.896;2023-04-24T07:29:30;8.73;;;8.03;;
5125;SDS011;63008;53.112;8.896;2023-04-24T07:31:31;9.43;;;8.53;;
5125;SDS011;63008;53.112;8.896;2023-04-24T07:33:35;9.93;;;8.90;;
5125;SDS011;63008;53.112;8.896;2023-04-24T07:35:36;9.60;;;8.67;;
5125;SDS011;63008;53.112;8.896;2023-04-24T07:37:37;9.10;;;8.20;;
5125;SDS011;63008;53.112;8.896;2023-04-24T07:39:38;9.97;;;7.93;;
5125;SDS011;63008;53.112;8.896;2023-04-24T07:41:40;8.23;;;7.63;;
5125;SDS011;63008;53.112;8.896;2023-04-24T07:43:41;9.27;;;7.87;;
5125;SDS011;63008;53.112;8.896;2023-04-24T07:45:42;8.37;;;7.57;;
5125;SDS011;63008;53.112;8.896;2023-04-24T07:47:44;8.50;;;7.70;;
5125;SDS011;63008;53.112;8.896;2023-04-24T07:49:46;8.40;;;7.37;;
5125;SDS011;63008;53.112;8.896;2023-04-24T07:51:47;7.40;;;6.70;;
5125;SDS011;63008;53.112;8.896;2023-04-24T07:53:48;7.80;;;7.20;;
5125;SDS011;63008;53.112;8.896;2023-04-24T07:55:49;8.43;;;6.80;;
5125;SDS011;63008;53.112;8.896;2023-04-24T07:57:50;7.50;;;6.70;;
5125;SDS011;63008;53.112;8.896;2023-04-24T07:59:51;8.30;;;6.70;;
5125;SDS011;63008;53.112;8.896;2023-04-24T08:01:52;6.40;;;5.87;;
5125;SDS011;63008;53.112;8.896;2023-04-24T08:03:54;8.63;;;6.90;;
5125;SDS011;63008;53.112;8.896;2023-04-24T08:05:56;9.13;;;6.57;;
5125;SDS011;63008;53.112;8.896;2023-04-24T08:07:57;8.00;;;7.17;;
5125;SDS011;63008;53.112;8.896;2023-04-24T08:09:59;7.47;;;6.80;;
5125;SDS011;63008;53.112;8.896;2023-04-24T08:12:00;8.03;;;7.17;;
5125;SDS011;63008;53.112;8.896;2023-04-24T08:14:01;7.80;;;7.03;;
5125;SDS011;63008;53.112;8.896;2023-04-24T08:16:02;7.90;;;6.70;;
5125;SDS011;63008;53.112;8.896;2023-04-24T08:18:03;7.53;;;6.73;;
5125;SDS011;63008;53.112;8.896;2023-04-24T08:20:04;8.10;;;7.30;;
5125;SDS011;63008;53.112;8.896;2023-04-24T08:22:06;6.90;;;6.27;;
5125;SDS011;63008;53.112;8.896;2023-04-24T08:24:07;8.17;;;7.37;;
5125;SDS011;63008;53.112;8.896;2023-04-24T08:26:08;7.30;;;6.60;;
5125;SDS011;63008;53.112;8.896;2023-04-24T08:28:09;7.80;;;6.70;;
5125;SDS011;63008;53.112;8.896;2023-04-24T08:30:11;7.23;;;6.50;;
5125;SDS011;63008;53.112;8.896;2023-04-24T08:32:13;7.13;;;6.53;;
5125;SDS011;63008;53.112;8.896;2023-04-24T08:34:13;7.80;;;7.10;;
5125;SDS011;63008;53.112;8.896;2023-04-24T08:36:15;8.00;;;7.20;;
5125;SDS011;63008;53.112;8.896;2023-04-24T08:38:16;9.90;;;6.57;;
5125;SDS011;63008;53.112;8.896;2023-04-24T08:40:17;7.60;;;6.80;;
5125;SDS011;63008;53.112;8.896;2023-04-24T08:42:19;7.47;;;6.67;;
5125;SDS011;63008;53.112;8.896;2023-04-24T08:44:21;10.20;;;7.40;;
5125;SDS011;63008;53.112;8.896;2023-04-24T08:46:22;7.37;;;6.73;;
5125;SDS011;63008;53.112;8.896;2023-04-24T08:48:23;7.93;;;7.23;;
5125;SDS011;63008;53.112;8.896;2023-04-24T08:50:24;9.60;;;7.80;;
5125;SDS011;63008;53.112;8.896;2023-04-24T08:52:25;8.93;;;8.13;;
5125;SDS011;63008;53.112;8.896;2023-04-24T08:54:28;11.07;;;8.37;;
5125;SDS011;63008;53.112;8.896;2023-04-24T08:56:29;17.40;;;8.30;;
5125;SDS011;63008;53.112;8.896;2023-04-24T08:58:33;10.00;;;8.90;;
5125;SDS011;63008;53.112;8.896;2023-04-24T09:00:36;11.43;;;9.37;;
5125;SDS011;63008;53.112;8.896;2023-04-24T09:02:41;12.20;;;10.10;;
5125;SDS011;63008;53.112;8.896;2023-04-24T09:04:44;10.47;;;9.47;;
5125;SDS011;63008;53.112;8.896;2023-04-24T09:06:46;10.20;;;9.03;;
5125;SDS011;63008;53.112;8.896;2023-04-24T09:08:49;11.73;;;9.63;;
5125;SDS011;63008;53.112;8.896;2023-04-24T09:10:54;16.30;;;11.13;;
5125;SDS011;63008;53.112;8.896;2023-04-24T09:12:55;11.70;;;10.50;;
5125;SDS011;63008;53.112;8.896;2023-04-24T09:14:58;16.00;;;11.10;;
5125;SDS011;63008;53.112;8.896;2023-04-24T09:17:01;10.07;;;9.17;;
5125;SDS011;63008;53.112;8.896;2023-04-24T09:19:02;16.73;;;10.30;;
5125;SDS011;63008;53.112;8.896;2023-04-24T09:21:05;12.13;;;10.93;;
5125;SDS011;63008;53.112;8.896;2023-04-24T09:23:08;14.00;;;11.27;;
5125;SDS011;63008;53.112;8.896;2023-04-24T09:25:13;15.93;;;13.30;;
5125;SDS011;63008;53.112;8.896;2023-04-24T09:27:14;14.63;;;11.93;;
5125;SDS011;63008;53.112;8.896;2023-04-24T09:29:18;17.10;;;12.80;;
5125;SDS011;63008;53.112;8.896;2023-04-24T09:31:19;14.97;;;11.70;;
5125;SDS011;63008;53.112;8.896;2023-04-24T09:33:22;14.30;;;11.70;;
5125;SDS011;63008;53.112;8.896;2023-04-24T09:35:23;14.97;;;11.90;;
5125;SDS011;63008;53.112;8.896;2023-04-24T09:37:30;16.00;;;11.90;;
5125;SDS011;63008;53.112;8.896;2023-04-24T09:39:36;13.63;;;12.07;;
5125;SDS011;63008;53.112;8.896;2023-04-24T09:41:43;15.27;;;11.00;;
5125;SDS011;63008;53.112;8.896;2023-04-24T09:43:46;13.80;;;11.63;;
5125;SDS011;63008;53.112;8.896;2023-04-24T09:45:47;14.80;;;11.07;;
5125;SDS011;63008;53.112;8.896;2023-04-24T09:47:51;11.50;;;10.30;;
5125;SDS011;63008;53.112;8.896;2023-04-24T09:49:57;18.33;;;11.50;;
5125;SDS011;63008;53.112;8.896;2023-04-24T09:52:05;12.97;;;10.60;;
5125;SDS011;63008;53.112;8.896;2023-04-24T09:54:13;15.20;;;11.50;;
5125;SDS011;63008;53.112;8.896;2023-04-24T09:56:23;11.97;;;10.73;;
5125;SDS011;63008;53.112;8.896;2023-04-24T09:58:26;13.17;;;11.53;;
5125;SDS011;63008;53.112;8.896;2023-04-24T10:00:28;12.57;;;11.00;;
5125;SDS011;63008;53.112;8.896;2023-04-24T10:02:32;13.50;;;11.17;;
5125;SDS011;63008;53.112;8.896;2023-04-24T10:04:33;12.00;;;9.30;;
5125;SDS011;63008;53.112;8.896;2023-04-24T10:06:34;15.53;;;10.80;;
5125;SDS011;63008;53.112;8.896;2023-04-24T10:08:36;12.13;;;10.60;;
5125;SDS011;63008;53.112;8.896;2023-04-24T10:10:38;11.70;;;9.43;;
5125;SDS011;63008;53.112;8.896;2023-04-24T10:12:43;14.70;;;10.60;;
5125;SDS011;63008;53.112;8.896;2023-04-24T10:14:45;9.00;;;8.20;;
5125;SDS011;63008;53.112;8.896;2023-04-24T10:16:47;18.80;;;9.73;;
5125;SDS011;63008;53.112;8.896;2023-04-24T10:18:48;12.90;;;10.20;;
5125;SDS011;63008;53.112;8.896;2023-04-24T10:20:49;10.67;;;8.50;;
5125;SDS011;63008;53.112;8.896;2023-04-24T10:22:52;10.50;;;9.37;;
5125;SDS011;63008;53.112;8.896;2023-04-24T10:24:54;8.00;;;7.30;;
5125;SDS011;63008;53.112;8.896;2023-04-24T10:26:55;14.97;;;9.50;;
5125;SDS011;63008;53.112;8.896;2023-04-24T10:28:57;11.00;;;8.67;;
5125;SDS011;63008;53.112;8.896;2023-04-24T10:30:59;9.23;;;8.33;;
5125;SDS011;63008;53.112;8.896;2023-04-24T10:33:01;9.67;;;8.50;;
5125;SDS011;63008;53.112;8.896;2023-04-24T10:35:04;8.53;;;7.80;;
5125;SDS011;63008;53.112;8.896;2023-04-24T10:37:07;10.67;;;8.23;;
5125;SDS011;63008;53.112;8.896;2023-04-24T10:39:09;12.90;;;8.10;;
5125;SDS011;63008;53.112;8.896;2023-04-24T10:41:13;7.70;;;6.93;;
5125;SDS011;63008;53.112;8.896;2023-04-24T10:43:20;9.17;;;8.27;;
5125;SDS011;63008;53.112;8.896;2023-04-24T10:45:21;10.10;;;8.40;;
5125;SDS011;63008;53.112;8.896;2023-04-24T10:47:23;10.03;;;8.97;;
5125;SDS011;63008;53.112;8.896;2023-04-24T10:49:29;8.90;;;8.07;;
5125;SDS011;63008;53.112;8.896;2023-04-24T10:51:44;8.77;;;8.07;;
5125;SDS011;63008;53.112;8.896;2023-04-24T10:53:46;7.87;;;7.17;;
5125;SDS011;63008;53.112;8.896;2023-04-24T10:55:48;9.13;;;8.23;;
5125;SDS011;63008;53.112;8.896;2023-04-24T10:58:03;8.83;;;8.03;;
5125;SDS011;63008;53.112;8.896;2023-04-24T11:00:15;8.40;;;7.77;;
5125;SDS011;63008;53.112;8.896;2023-04-24T11:02:23;8.30;;;7.60;;
5125;SDS011;63008;53.112;8.896;2023-04-24T11:04:37;10.43;;;8.90;;
5125;SDS011;63008;53.112;8.896;2023-04-24T11:06:38;7.27;;;6.67;;
5125;SDS011;63008;53.112;8.896;2023-04-24T11:08:44;6.83;;;6.20;;
5125;SDS011;63008;53.112;8.896;2023-04-24T11:10:47;7.60;;;6.90;;
5125;SDS011;63008;53.112;8.896;2023-04-24T11:12:54;6.20;;;5.80;;
5125;SDS011;63008;53.112;8.896;2023-04-24T11:16:56;6.90;;;6.30;;
5125;SDS011;63008;53.112;8.896;2023-04-24T11:19:02;7.70;;;7.00;;
5125;SDS011;63008;53.112;8.896;2023-04-24T11:21:24;7.60;;;6.90;;
5125;SDS011;63008;53.112;8.896;2023-04-24T11:23:25;6.53;;;5.70;;
5125;SDS011;63008;53.112;8.896;2023-04-24T11:25:28;5.83;;;5.53;;
5125;SDS011;63008;53.112;8.896;2023-04-24T11:27:31;6.70;;;6.10;;
5125;SDS011;63008;53.112;8.896;2023-04-24T11:31:52;6.60;;;6.10;;
5125;SDS011;63008;53.112;8.896;2023-04-24T11:33:53;6.87;;;6.37;;
5125;SDS011;63008;53.112;8.896;2023-04-24T11:35:54;6.83;;;6.30;;
5125;SDS011;63008;53.112;8.896;2023-04-24T11:37:55;5.83;;;5.30;;
5125;SDS011;63008;53.112;8.896;2023-04-24T11:39:57;6.47;;;5.97;;
5125;SDS011;63008;53.112;8.896;2023-04-24T11:42:02;7.07;;;5.57;;
5125;SDS011;63008;53.112;8.896;2023-04-24T11:44:05;6.23;;;5.33;;
5125;SDS011;63008;53.112;8.896;2023-04-24T11:46:07;4.80;;;4.50;;
5125;SDS011;63008;53.112;8.896;2023-04-24T11:48:08;4.40;;;4.10;;
5125;SDS011;63008;53.112;8.896;2023-04-24T11:50:10;5.00;;;4.33;;
5125;SDS011;63008;53.112;8.896;2023-04-24T11:52:15;5.07;;;4.67;;
5125;SDS011;63008;53.112;8.896;2023-04-24T11:54:16;5.77;;;5.23;;
5125;SDS011;63008;53.112;8.896;2023-04-24T11:56:17;6.30;;;5.90;;
5125;SDS011;63008;53.112;8.896;2023-04-24T11:58:20;6.20;;;5.60;;
5125;SDS011;63008;53.112;8.896;2023-04-24T12:00:23;6.50;;;5.90;;
5125;SDS011;63008;53.112;8.896;2023-04-24T12:02:29;5.93;;;5.40;;
5125;SDS011;63008;53.112;8.896;2023-04-24T12:04:38;7.80;;;6.40;;
5125;SDS011;63008;53.112;8.896;2023-04-24T12:06:58;6.03;;;5.53;;
5125;SDS011;63008;53.112;8.896;2023-04-24T12:09:00;8.33;;;6.33;;
5125;SDS011;63008;53.112;8.896;2023-04-24T12:11:02;6.70;;;6.10;;
5125;SDS011;63008;53.112;8.896;2023-04-24T12:13:04;7.47;;;6.77;;
5125;SDS011;63008;53.112;8.896;2023-04-24T12:15:06;8.43;;;7.70;;
5125;SDS011;63008;53.112;8.896;2023-04-24T12:17:08;7.33;;;6.73;;
5125;SDS011;63008;53.112;8.896;2023-04-24T12:19:09;7.43;;;6.80;;
5125;SDS011;63008;53.112;8.896;2023-04-24T12:21:20;8.37;;;7.57;;
5125;SDS011;63008;53.112;8.896;2023-04-24T12:23:34;8.40;;;7.60;;
5125;SDS011;63008;53.112;8.896;2023-04-24T12:25:38;8.60;;;7.90;;
5125;SDS011;63008;53.112;8.896;2023-04-24T12:27:40;8.93;;;8.20;;